createdAt,value
2023-05-10T00:01:14.947Z,7.35
2023-05-10T00:03:41.910Z,6.68
2023-05-10T00:06:08.592Z,6.85
2023-05-10T00:08:35.237Z,6.90
2023-05-10T00:11:01.893Z,8.35
2023-05-10T00:13:28.732Z,8.05
2023-05-10T00:15:55.489Z,5.32
2023-05-10T00:18:22.102Z,6.80
2023-05-10T00:20:49.813Z,5.47
2023-05-10T00:23:16.495Z,6.18
2023-05-10T00:25:43.184Z,5.32
2023-05-10T00:28:09.841Z,5.32
2023-05-10T00:30:36.534Z,5.85
2023-05-10T00:33:03.961Z,7.68
2023-05-10T00:35:30.739Z,6.30
2023-05-10T00:37:57.488Z,5.63
2023-05-10T00:40:24.176Z,6.22
2023-05-10T00:42:50.925Z,5.43
2023-05-10T00:45:17.562Z,6.20
2023-05-10T00:47:44.209Z,7.63
2023-05-10T00:50:11.053Z,6.22
2023-05-10T00:52:37.677Z,5.45
2023-05-10T00:55:05.117Z,6.68
2023-05-10T00:57:31.896Z,6.65
2023-05-10T00:59:58.850Z,5.05
2023-05-10T01:02:25.628Z,8.98
2023-05-10T01:04:53.005Z,5.53
2023-05-10T01:07:19.917Z,6.28
2023-05-10T01:09:46.592Z,6.03
2023-05-10T01:12:13.285Z,5.20
2023-05-10T01:14:40.019Z,8.68
2023-05-10T01:17:07.057Z,6.75
2023-05-10T01:19:35.976Z,6.25
2023-05-10T01:22:32.562Z,7.43
2023-05-10T01:25:05.065Z,8.63
2023-05-10T01:27:59.449Z,6.57
2023-05-10T01:30:34.902Z,7.68
2023-05-10T01:33:27.857Z,8.20
2023-05-10T01:36:09.951Z,8.05
2023-05-10T01:38:50.984Z,8.07
2023-05-10T01:41:27.716Z,8.75
2023-05-10T01:44:06.639Z,7.95
2023-05-10T01:46:38.489Z,8.55
2023-05-10T01:49:09.586Z,8.52
2023-05-10T01:51:41.772Z,7.60
2023-05-10T01:54:08.322Z,7.60
2023-05-10T01:56:34.994Z,8.93
2023-05-10T01:59:02.392Z,13.63
2023-05-10T02:01:29.216Z,7.43
2023-05-10T02:03:56.354Z,8.45
2023-05-10T02:06:23.073Z,6.95
2023-05-10T02:08:50.452Z,8.50
2023-05-10T02:11:17.149Z,9.07
2023-05-10T02:13:44.544Z,9.25
2023-05-10T02:16:11.166Z,20.52
2023-05-10T02:18:37.869Z,8.52
2023-05-10T02:21:04.559Z,9.13
2023-05-10T02:23:31.282Z,8.55
2023-05-10T02:25:58.019Z,7.28
2023-05-10T02:28:24.830Z,12.35
2023-05-10T02:30:52.055Z,8.05
2023-05-10T02:33:19.080Z,8.63
2023-05-10T02:35:45.846Z,11.18
2023-05-10T02:38:12.822Z,7.40
2023-05-10T02:40:39.462Z,7.05
2023-05-10T02:43:06.159Z,9.13
2023-05-10T02:45:32.859Z,9.95
2023-05-10T02:47:59.649Z,8.85
2023-05-10T02:50:27.853Z,9.75
2023-05-10T02:52:57.439Z,10.38
2023-05-10T02:55:26.661Z,10.10
2023-05-10T02:57:55.390Z,9.63
2023-05-10T03:00:22.081Z,7.57
2023-05-10T03:02:48.797Z,9.45
2023-05-10T03:05:15.559Z,9.77
2023-05-10T03:07:42.225Z,10.68
2023-05-10T03:10:09.098Z,9.52
2023-05-10T03:13:13.416Z,7.55
2023-05-10T03:15:55.893Z,11.30
2023-05-10T03:18:24.057Z,9.35
2023-05-10T03:20:56.591Z,11.93
2023-05-10T03:23:52.624Z,9.85
2023-05-10T03:26:27.651Z,8.88
2023-05-10T03:28:54.330Z,7.10
2023-05-10T03:31:21.091Z,9.20
2023-05-10T03:33:49.347Z,8.52
2023-05-10T03:36:15.984Z,8.80
2023-05-10T03:38:42.842Z,11.55
2023-05-10T03:41:09.500Z,10.63
2023-05-10T03:43:37.620Z,8.27
2023-05-10T03:46:04.738Z,7.55
2023-05-10T03:48:31.740Z,8.60
2023-05-10T03:50:58.414Z,8.82
2023-05-10T03:53:25.279Z,11.73
2023-05-10T03:55:52.038Z,7.57
2023-05-10T03:58:19.394Z,9.02
2023-05-10T04:00:46.525Z,10.88
2023-05-10T04:03:13.400Z,8.27
2023-05-10T04:05:40.375Z,10.27
2023-05-10T04:08:07.132Z,8.68
2023-05-10T04:10:33.804Z,9.65
2023-05-10T04:13:00.663Z,7.93
2023-05-10T04:15:27.314Z,7.15
2023-05-10T04:17:54.832Z,8.45
2023-05-10T04:20:21.498Z,7.15
2023-05-10T04:22:48.133Z,9.73
2023-05-10T04:25:14.902Z,7.25
2023-05-10T04:27:41.601Z,12.38
2023-05-10T04:30:08.708Z,8.52
2023-05-10T04:32:35.464Z,8.20
2023-05-10T04:35:04.571Z,8.50
2023-05-10T04:37:31.428Z,7.88
2023-05-10T04:39:58.078Z,11.65
2023-05-10T04:42:24.637Z,10.18
2023-05-10T04:44:53.115Z,9.10
2023-05-10T04:47:19.999Z,11.52
2023-05-10T04:49:46.679Z,9.68
2023-05-10T04:52:13.362Z,9.48
2023-05-10T04:54:40.280Z,9.75
2023-05-10T04:57:06.966Z,10.15
2023-05-10T04:59:33.635Z,10.63
2023-05-10T05:02:00.370Z,11.98
2023-05-10T05:04:27.031Z,10.90
2023-05-10T05:06:54.074Z,11.02
2023-05-10T05:09:20.977Z,11.57
2023-05-10T05:11:47.666Z,11.07
2023-05-10T05:14:14.276Z,13.23
2023-05-10T05:16:40.990Z,10.35
2023-05-10T05:19:07.670Z,13.98
2023-05-10T05:21:34.419Z,11.75
2023-05-10T05:24:01.776Z,13.00
2023-05-10T05:26:28.599Z,12.50
2023-05-10T05:28:55.706Z,13.85
2023-05-10T05:31:22.664Z,11.50
2023-05-10T05:33:49.302Z,12.50
2023-05-10T05:36:15.963Z,14.20
2023-05-10T05:38:43.027Z,13.63
2023-05-10T05:41:09.618Z,13.98
2023-05-10T05:43:38.203Z,14.65
2023-05-10T05:46:05.494Z,16.65
2023-05-10T05:48:32.319Z,13.63
2023-05-10T05:50:59.067Z,11.57
2023-05-10T05:53:25.860Z,16.65
2023-05-10T05:55:56.405Z,15.13
2023-05-10T05:58:23.557Z,13.27
2023-05-10T06:00:50.377Z,17.10
2023-05-10T06:03:17.344Z,12.48
2023-05-10T06:05:44.070Z,16.20
2023-05-10T06:08:10.850Z,12.88
2023-05-10T06:10:37.861Z,12.00
2023-05-10T06:13:04.619Z,16.38
2023-05-10T06:15:31.337Z,15.73
2023-05-10T06:17:58.043Z,17.35
2023-05-10T06:20:24.721Z,17.40
2023-05-10T06:22:51.391Z,17.08
2023-05-10T06:25:19.268Z,17.55
2023-05-10T06:27:49.809Z,15.70
2023-05-10T06:30:18.619Z,19.85
2023-05-10T06:32:46.242Z,16.27
2023-05-10T06:35:12.988Z,14.98
2023-05-10T06:37:39.885Z,16.33
2023-05-10T06:40:07.552Z,15.27
2023-05-10T06:42:34.237Z,13.98
2023-05-10T06:45:01.030Z,12.60
2023-05-10T06:47:27.779Z,17.38
2023-05-10T06:49:54.648Z,18.35
2023-05-10T06:52:21.239Z,20.17
2023-05-10T06:54:47.888Z,16.55
2023-05-10T06:57:27.566Z,16.83
2023-05-10T06:59:58.040Z,16.25
2023-05-10T07:02:24.671Z,20.33
2023-05-10T07:04:53.148Z,14.23
2023-05-10T07:07:20.106Z,16.55
2023-05-10T07:09:46.797Z,15.05
2023-05-10T07:12:15.392Z,14.88
2023-05-10T07:14:43.011Z,13.07
2023-05-10T07:17:09.986Z,16.85
2023-05-10T07:19:37.032Z,12.98
2023-05-10T07:22:03.852Z,16.48
2023-05-10T07:24:30.927Z,15.93
2023-05-10T07:26:57.626Z,16.02
2023-05-10T07:29:24.285Z,15.85
2023-05-10T07:31:51.186Z,14.75
2023-05-10T07:34:17.887Z,19.48
2023-05-10T07:36:44.687Z,18.83
2023-05-10T07:39:12.707Z,17.17
2023-05-10T07:41:43.088Z,14.38
2023-05-10T07:44:09.753Z,14.90
2023-05-10T07:46:36.485Z,20.52
2023-05-10T07:49:03.275Z,12.95
2023-05-10T07:51:29.992Z,15.15
2023-05-10T07:53:56.673Z,12.25
2023-05-10T07:56:28.119Z,14.63
2023-05-10T07:58:55.437Z,14.40
2023-05-10T08:01:22.239Z,11.95
2023-05-10T08:03:49.283Z,12.90
2023-05-10T08:06:16.548Z,105.20
2023-05-10T08:08:43.384Z,36.25
2023-05-10T08:11:10.189Z,19.95
2023-05-10T08:13:36.800Z,27.98
2023-05-10T08:16:03.540Z,18.02
2023-05-10T08:18:30.461Z,25.35
2023-05-10T08:20:57.154Z,24.45
2023-05-10T08:23:23.853Z,19.10
2023-05-10T08:25:50.575Z,46.47
2023-05-10T08:28:17.242Z,23.33
2023-05-10T08:30:43.951Z,18.00
2023-05-10T08:33:10.759Z,23.98
2023-05-10T08:35:37.527Z,18.52
2023-05-10T08:38:04.390Z,23.05
2023-05-10T08:40:31.086Z,26.63
2023-05-10T08:43:08.280Z,54.67
2023-05-10T08:45:38.625Z,21.13
2023-05-10T08:48:06.730Z,19.63
2023-05-10T08:50:33.477Z,19.25
2023-05-10T08:53:02.168Z,44.45
2023-05-10T08:55:28.922Z,32.42
2023-05-10T08:57:55.876Z,21.00
2023-05-10T09:00:24.080Z,16.30
2023-05-10T09:02:51.298Z,22.25
2023-05-10T09:05:18.937Z,23.67
2023-05-10T09:07:45.966Z,21.45
2023-05-10T09:10:12.604Z,20.25
2023-05-10T09:12:39.383Z,16.90
2023-05-10T09:15:07.171Z,17.45
2023-05-10T09:17:33.977Z,23.15
2023-05-10T09:20:01.325Z,28.65
2023-05-10T09:22:28.296Z,20.98
2023-05-10T09:25:14.594Z,19.75
2023-05-10T09:27:42.261Z,25.67
2023-05-10T09:30:09.562Z,20.70
2023-05-10T09:32:48.149Z,18.27
2023-05-10T09:35:22.657Z,21.08
2023-05-10T09:37:50.936Z,37.95
2023-05-10T09:40:19.057Z,41.10
2023-05-10T09:42:55.724Z,28.95
2023-05-10T09:45:23.439Z,29.10
2023-05-10T09:47:50.186Z,20.83
2023-05-10T09:50:17.293Z,22.73
2023-05-10T09:52:53.780Z,27.60
2023-05-10T09:55:24.378Z,20.02
2023-05-10T09:57:59.726Z,19.38
2023-05-10T10:00:27.198Z,25.00
2023-05-10T10:03:00.444Z,22.63
2023-05-10T10:05:34.267Z,23.27
2023-05-10T10:08:02.761Z,21.52
2023-05-10T10:10:29.411Z,29.48
2023-05-10T10:12:56.447Z,26.45
2023-05-10T10:15:23.783Z,23.98
2023-05-10T10:17:51.205Z,40.65
2023-05-10T10:20:18.851Z,31.38
2023-05-10T10:22:46.713Z,22.70
2023-05-10T10:25:15.149Z,23.42
2023-05-10T10:28:14.903Z,22.40
2023-05-10T10:30:49.323Z,23.40
2023-05-10T10:33:37.931Z,23.35
2023-05-10T10:36:05.030Z,23.70
2023-05-10T10:38:49.333Z,26.23
2023-05-10T10:41:51.383Z,88.50
2023-05-10T10:44:26.981Z,52.33
2023-05-10T10:47:12.600Z,85.13
2023-05-10T10:49:42.644Z,47.67
2023-05-10T10:52:40.788Z,29.92
2023-05-10T10:55:09.437Z,85.15
2023-05-10T10:57:45.292Z,28.92
2023-05-10T11:00:34.172Z,36.58
2023-05-10T11:03:05.423Z,37.65
2023-05-10T11:05:47.807Z,25.77
2023-05-10T11:08:14.379Z,23.73
2023-05-10T11:10:49.711Z,26.13
2023-05-10T11:13:16.411Z,26.42
2023-05-10T11:15:49.445Z,24.95
2023-05-10T11:18:26.554Z,24.20
2023-05-10T11:21:08.314Z,24.00
2023-05-10T11:23:40.985Z,34.03
2023-05-10T11:26:10.617Z,23.95
2023-05-10T11:28:47.538Z,28.60
2023-05-10T11:31:17.878Z,73.03
2023-05-10T11:33:49.056Z,66.82
2023-05-10T11:36:17.138Z,55.10
2023-05-10T11:38:43.811Z,28.10
2023-05-10T11:41:13.767Z,35.47
2023-05-10T11:43:40.801Z,25.10
2023-05-10T11:46:07.787Z,20.67
2023-05-10T11:48:34.526Z,23.38
2023-05-10T11:51:03.014Z,31.50
2023-05-10T11:53:33.353Z,20.08
2023-05-10T11:56:10.239Z,18.67
2023-05-10T11:58:37.850Z,16.38
2023-05-10T12:01:05.460Z,21.85
2023-05-10T12:03:32.351Z,28.60
2023-05-10T12:05:59.448Z,18.98
2023-05-10T12:08:27.314Z,15.77
2023-05-10T12:11:11.485Z,19.50
2023-05-10T12:13:41.936Z,20.90
2023-05-10T12:16:19.095Z,21.98
2023-05-10T12:18:46.417Z,14.50
2023-05-10T12:21:13.302Z,16.90
2023-05-10T12:23:40.416Z,21.13
2023-05-10T12:26:07.264Z,17.02
2023-05-10T12:28:34.082Z,19.33
2023-05-10T12:31:00.901Z,17.00
2023-05-10T12:33:27.601Z,16.88
2023-05-10T12:35:55.326Z,16.17
2023-05-10T12:38:39.174Z,15.00
2023-05-10T12:41:11.674Z,20.10
2023-05-10T12:43:38.879Z,17.42
2023-05-10T12:46:15.746Z,15.70
2023-05-10T12:48:43.491Z,17.23
2023-05-10T12:51:14.201Z,18.83
2023-05-10T12:53:42.723Z,22.05
2023-05-10T12:56:11.324Z,14.82
2023-05-10T12:58:38.030Z,19.52
2023-05-10T13:01:05.857Z,25.70
2023-05-10T13:03:32.658Z,54.70
2023-05-10T13:05:59.420Z,49.00
2023-05-10T13:08:26.257Z,56.03
2023-05-10T13:10:52.899Z,19.20
2023-05-10T13:13:19.567Z,16.77
2023-05-10T13:15:46.254Z,16.48
2023-05-10T13:18:12.934Z,13.15
2023-05-10T13:20:39.809Z,11.93
2023-05-10T13:23:06.518Z,14.23
2023-05-10T13:25:33.394Z,15.48
2023-05-10T13:28:00.150Z,21.75
2023-05-10T13:30:26.839Z,17.70
2023-05-10T13:32:53.620Z,24.77
2023-05-10T13:35:20.403Z,15.77
2023-05-10T13:37:47.101Z,15.63
2023-05-10T13:40:14.704Z,23.98
2023-05-10T13:42:41.984Z,14.48
2023-05-10T13:45:08.979Z,14.80
2023-05-10T13:47:35.734Z,11.20
2023-05-10T13:50:02.966Z,14.82
2023-05-10T13:52:29.598Z,13.30
2023-05-10T13:54:56.381Z,13.57
2023-05-10T13:57:24.068Z,13.38
2023-05-10T13:59:51.302Z,11.73
2023-05-10T14:02:18.095Z,15.73
2023-05-10T14:04:44.848Z,14.55
2023-05-10T14:07:11.543Z,13.75
2023-05-10T14:09:38.270Z,14.15
2023-05-10T14:12:04.976Z,16.70
2023-05-10T14:14:31.741Z,12.50
2023-05-10T14:16:58.513Z,13.95
2023-05-10T14:19:25.149Z,15.27
2023-05-10T14:21:53.036Z,24.17
2023-05-10T14:24:19.601Z,16.92
2023-05-10T14:26:46.244Z,18.10
2023-05-10T14:29:12.965Z,13.38
2023-05-10T14:31:39.814Z,13.38
2023-05-10T14:34:06.807Z,16.17
2023-05-10T14:36:33.639Z,13.55
2023-05-10T14:39:00.371Z,13.52
2023-05-10T14:41:27.254Z,11.73
2023-05-10T14:43:54.260Z,13.65
2023-05-10T14:46:21.158Z,15.32
2023-05-10T14:48:47.871Z,15.38
2023-05-10T14:51:14.846Z,16.55
2023-05-10T14:53:41.711Z,12.52
2023-05-10T14:56:08.564Z,14.88
2023-05-10T14:58:35.232Z,12.35
2023-05-10T15:01:02.229Z,17.83
2023-05-10T15:03:30.014Z,20.17
2023-05-10T15:05:58.764Z,25.65
2023-05-10T15:08:28.828Z,15.00
2023-05-10T15:10:56.963Z,14.13
2023-05-10T15:13:23.644Z,32.58
2023-05-10T15:15:50.660Z,14.02
2023-05-10T15:18:17.903Z,20.88
2023-05-10T15:20:44.722Z,15.63
2023-05-10T15:23:11.391Z,15.45
2023-05-10T15:25:38.526Z,64.47
2023-05-10T15:28:05.466Z,77.50
2023-05-10T15:30:32.148Z,282.75
2023-05-10T15:32:58.918Z,97.78
2023-05-10T15:35:27.018Z,141.68
2023-05-10T15:37:53.672Z,121.85
2023-05-10T15:40:20.466Z,56.60
2023-05-10T15:42:47.172Z,53.05
2023-05-10T15:45:13.920Z,50.42
2023-05-10T15:47:40.723Z,39.55
2023-05-10T15:50:08.412Z,51.47
2023-05-10T15:52:36.141Z,56.13
2023-05-10T15:55:03.630Z,25.33
2023-05-10T15:57:30.425Z,42.45
2023-05-10T15:59:57.155Z,24.38
2023-05-10T16:02:23.999Z,32.58
2023-05-10T16:04:51.663Z,44.80
2023-05-10T16:07:18.457Z,29.92
2023-05-10T16:09:45.149Z,47.67
2023-05-10T16:12:11.743Z,15.07
2023-05-10T16:14:38.404Z,34.80
2023-05-10T16:17:05.217Z,39.80
2023-05-10T16:19:32.231Z,25.00
2023-05-10T16:21:58.975Z,22.88
2023-05-10T16:24:26.376Z,26.08
2023-05-10T16:26:53.131Z,20.73
2023-05-10T16:29:19.819Z,23.77
2023-05-10T16:31:46.994Z,18.60
2023-05-10T16:34:13.660Z,18.13
2023-05-10T16:36:40.502Z,16.63
2023-05-10T16:39:07.424Z,15.30
2023-05-10T16:41:34.512Z,13.15
2023-05-10T16:44:01.793Z,18.42
2023-05-10T16:46:28.477Z,19.98
2023-05-10T16:48:55.184Z,12.27
2023-05-10T16:51:21.835Z,26.42
2023-05-10T16:53:48.421Z,17.25
2023-05-10T16:56:15.081Z,18.25
2023-05-10T16:58:41.844Z,11.70
2023-05-10T17:01:08.564Z,16.70
2023-05-10T17:03:35.817Z,16.25
2023-05-10T17:06:02.625Z,13.90
2023-05-10T17:08:29.217Z,16.42
2023-05-10T17:10:56.395Z,11.15
2023-05-10T17:13:23.303Z,16.40
2023-05-10T17:15:50.093Z,14.10
2023-05-10T17:18:17.466Z,13.52
2023-05-10T17:20:45.165Z,15.25
2023-05-10T17:23:11.922Z,13.93
2023-05-10T17:25:38.759Z,17.60
2023-05-10T17:28:05.550Z,17.60
2023-05-10T17:30:32.847Z,25.98
2023-05-10T17:33:00.233Z,18.75
2023-05-10T17:35:27.021Z,14.93
2023-05-10T17:37:53.876Z,16.35
2023-05-10T17:40:20.561Z,15.75
2023-05-10T17:42:47.252Z,15.80
2023-05-10T17:45:13.941Z,14.90
2023-05-10T17:47:40.691Z,17.00
2023-05-10T17:50:07.596Z,15.93
2023-05-10T17:52:34.299Z,17.95
2023-05-10T17:55:01.017Z,22.58
2023-05-10T17:57:28.130Z,18.27
2023-05-10T17:59:54.863Z,19.80
2023-05-10T18:02:21.549Z,15.52
2023-05-10T18:04:49.436Z,17.65
2023-05-10T18:07:16.551Z,20.98
2023-05-10T18:09:43.237Z,18.70
2023-05-10T18:12:09.821Z,20.83
2023-05-10T18:14:41.244Z,20.55
2023-05-10T18:17:09.272Z,15.52
2023-05-10T18:19:36.069Z,17.88
2023-05-10T18:22:02.859Z,16.27
2023-05-10T18:26:59.156Z,74.00
2023-05-10T18:29:26.088Z,129.48
2023-05-10T18:31:52.784Z,89.45
2023-05-10T18:34:19.399Z,41.88
2023-05-10T18:36:46.361Z,21.70
2023-05-10T18:39:13.351Z,21.73
2023-05-10T18:41:40.090Z,28.90
2023-05-10T18:44:06.719Z,39.45
2023-05-10T18:46:33.792Z,28.30
2023-05-10T18:49:00.513Z,27.05
2023-05-10T18:51:29.573Z,21.98
2023-05-10T18:53:56.354Z,24.83
2023-05-10T18:56:23.768Z,24.58
2023-05-10T18:58:50.368Z,22.73
2023-05-10T19:01:17.189Z,23.27
2023-05-10T19:03:43.824Z,29.23
2023-05-10T19:06:10.948Z,26.88
2023-05-10T19:08:37.707Z,18.92
2023-05-10T19:11:04.366Z,31.73
2023-05-10T19:13:31.157Z,29.50
2023-05-10T19:16:10.927Z,18.50
2023-05-10T19:18:39.398Z,24.48
2023-05-10T19:21:10.439Z,25.02
2023-05-10T19:23:39.663Z,26.08
2023-05-10T19:26:06.395Z,29.35
2023-05-10T19:28:34.215Z,29.83
2023-05-10T19:31:01.828Z,26.17
2023-05-10T19:33:28.745Z,21.13
2023-05-10T19:35:55.675Z,21.67
2023-05-10T19:38:22.962Z,20.17
2023-05-10T19:40:59.557Z,16.10
2023-05-10T19:43:26.810Z,18.92
2023-05-10T19:45:53.995Z,25.65
2023-05-10T19:48:20.735Z,26.50
2023-05-10T19:50:47.327Z,17.67
2023-05-10T19:53:14.080Z,22.95
2023-05-10T19:55:40.789Z,17.40
2023-05-10T19:58:07.381Z,35.90
2023-05-10T20:00:34.207Z,34.13
2023-05-10T20:03:01.319Z,20.30
2023-05-10T20:05:28.818Z,15.52
2023-05-10T20:07:55.501Z,16.00
2023-05-10T20:10:22.113Z,17.88
2023-05-10T20:12:52.891Z,19.00
2023-05-10T20:15:21.067Z,15.13
2023-05-10T20:17:48.090Z,15.20
2023-05-10T20:20:16.630Z,66.50
2023-05-10T20:22:47.172Z,14.00
2023-05-10T20:25:14.339Z,17.20
2023-05-10T20:27:41.000Z,17.27
2023-05-10T20:30:08.071Z,77.18
2023-05-10T20:32:34.813Z,24.30
2023-05-10T20:35:01.633Z,17.25
2023-05-10T20:37:28.730Z,31.52
2023-05-10T20:39:55.600Z,15.68
2023-05-10T20:42:22.401Z,13.32
2023-05-10T20:44:49.889Z,13.95
2023-05-10T20:47:16.708Z,17.40
2023-05-10T20:49:43.700Z,16.67
2023-05-10T20:52:10.403Z,15.10
2023-05-10T20:54:37.113Z,29.27
2023-05-10T20:57:03.902Z,15.23
2023-05-10T20:59:30.641Z,14.52
2023-05-10T21:01:57.701Z,14.70
2023-05-10T21:04:25.583Z,19.38
2023-05-10T21:06:53.074Z,23.50
2023-05-10T21:09:19.811Z,13.38
2023-05-10T21:11:46.641Z,15.32
2023-05-10T21:14:13.251Z,16.83
2023-05-10T21:16:40.162Z,14.70
2023-05-10T21:19:09.662Z,16.20
2023-05-10T21:21:36.423Z,27.75
2023-05-10T21:24:03.309Z,28.50
2023-05-10T21:26:29.952Z,16.73
2023-05-10T21:28:56.628Z,16.15
2023-05-10T21:31:23.443Z,14.55
2023-05-10T21:33:50.263Z,15.73
2023-05-10T21:36:16.893Z,16.63
2023-05-10T21:38:44.553Z,16.88
2023-05-10T21:41:11.250Z,17.30
2023-05-10T21:43:38.049Z,18.45
2023-05-10T21:46:04.814Z,18.33
2023-05-10T21:48:31.486Z,15.35
2023-05-10T21:50:58.848Z,13.23
2023-05-10T21:53:25.485Z,14.48
2023-05-10T21:55:52.314Z,15.57
2023-05-10T21:58:19.012Z,17.20
2023-05-10T22:00:45.620Z,14.68
2023-05-10T22:03:12.415Z,17.98
2023-05-10T22:05:39.286Z,14.25
2023-05-10T22:08:06.582Z,15.00
2023-05-10T22:10:33.387Z,17.70
2023-05-10T22:13:00.364Z,14.30
2023-05-10T22:15:27.215Z,14.50
2023-05-10T22:17:54.020Z,13.18
2023-05-10T22:20:21.209Z,17.25
2023-05-10T22:22:47.930Z,15.93
2023-05-10T22:25:14.741Z,14.40
2023-05-10T22:27:41.490Z,18.42
2023-05-10T22:30:08.697Z,17.08
2023-05-10T22:32:35.460Z,19.38
2023-05-10T22:35:02.378Z,15.48
2023-05-10T22:37:29.078Z,14.73
2023-05-10T22:39:55.755Z,16.58
2023-05-10T22:42:22.367Z,18.52
2023-05-10T22:44:49.012Z,19.00
2023-05-10T22:47:16.487Z,16.55
2023-05-10T22:49:43.140Z,18.98
2023-05-10T22:52:10.838Z,19.42
2023-05-10T22:54:37.472Z,16.42
2023-05-10T22:57:04.153Z,13.48
2023-05-10T22:59:30.967Z,15.73
2023-05-10T23:01:57.667Z,14.40
2023-05-10T23:04:24.298Z,15.52
2023-05-10T23:06:50.994Z,13.77
2023-05-10T23:09:17.582Z,16.15
2023-05-10T23:11:44.278Z,16.13
2023-05-10T23:14:11.047Z,14.55
2023-05-10T23:16:37.772Z,15.50
2023-05-10T23:19:04.595Z,18.15
2023-05-10T23:21:32.251Z,14.75
2023-05-10T23:23:59.395Z,14.50
2023-05-10T23:26:26.015Z,12.25
2023-05-10T23:28:52.651Z,17.83
2023-05-10T23:31:19.378Z,11.80
2023-05-10T23:33:46.159Z,13.85
2023-05-10T23:36:12.772Z,14.18
2023-05-10T23:38:39.654Z,13.25
2023-05-10T23:41:06.280Z,13.27
2023-05-10T23:43:32.921Z,17.02
2023-05-10T23:45:59.732Z,14.55
2023-05-10T23:48:26.411Z,15.32
2023-05-10T23:50:53.105Z,14.95
2023-05-10T23:53:19.859Z,15.05
2023-05-10T23:55:46.831Z,15.95
2023-05-10T23:58:13.469Z,15.15
